PDT5823 KROA-KCLT
Flight info
| Callsign | PDT5823 |
|---|---|
| Flight time | 0h 33m |
| Altitude | 24000 |
| Route | AIROW CHSLY6 |
| Aircraft | E145/M-SDFGIRW/S |
Departure
| Time | 2026-04-24 12:46 |
|---|---|
| Airport | Roanoke–Blacksburg Regional Airport (KROA) |
Arrival
| Time | 2026-04-24 13:20 |
|---|---|
| Airport | Charlotte Douglas International Airport (KCLT) |
| Time | Latitude | Longitude | Altitude | Speed | Heading |
|---|---|---|---|---|---|
| 2026-04-24 12:28 | 37.32110 | -79.97145 | 1157 ft | 0 kts | 107° |
| 2026-04-24 12:36 | 37.32110 | -79.97144 | 1157 ft | 0 kts | 107° |
| 2026-04-24 12:36 | 37.32113 | -79.97156 | 1158 ft | 2 kts | 107° |
| 2026-04-24 12:37 | 37.32117 | -79.97175 | 1158 ft | 2 kts | 105° |
| 2026-04-24 12:37 | 37.32121 | -79.97193 | 1158 ft | 2 kts | 105° |
| 2026-04-24 12:37 | 37.32125 | -79.97212 | 1157 ft | 2 kts | 105° |
| 2026-04-24 12:37 | 37.32129 | -79.97229 | 1157 ft | 2 kts | 124° |
| 2026-04-24 12:38 | 37.32138 | -79.97240 | 1157 ft | 1 kts | 152° |
| 2026-04-24 12:38 | 37.32144 | -79.97244 | 1158 ft | 0 kts | 148° |
| 2026-04-24 12:40 | 37.32143 | -79.97244 | 1157 ft | 0 kts | 148° |
| 2026-04-24 12:41 | 37.32129 | -79.97232 | 1157 ft | 4 kts | 148° |
| 2026-04-24 12:41 | 37.32093 | -79.97205 | 1156 ft | 7 kts | 148° |
| 2026-04-24 12:41 | 37.32037 | -79.97161 | 1155 ft | 11 kts | 149° |
| 2026-04-24 12:41 | 37.31974 | -79.97210 | 1151 ft | 14 kts | 264° |
| 2026-04-24 12:42 | 37.32044 | -79.97295 | 1153 ft | 14 kts | 329° |
| 2026-04-24 12:42 | 37.32130 | -79.97363 | 1155 ft | 14 kts | 328° |
| 2026-04-24 12:42 | 37.32216 | -79.97430 | 1157 ft | 14 kts | 328° |
| 2026-04-24 12:42 | 37.32302 | -79.97498 | 1159 ft | 14 kts | 328° |
| 2026-04-24 12:43 | 37.32387 | -79.97565 | 1161 ft | 14 kts | 328° |
| 2026-04-24 12:43 | 37.32472 | -79.97632 | 1163 ft | 14 kts | 327° |
| 2026-04-24 12:43 | 37.32559 | -79.97705 | 1162 ft | 16 kts | 321° |
| 2026-04-24 12:43 | 37.32661 | -79.97793 | 1160 ft | 18 kts | 328° |
| 2026-04-24 12:44 | 37.32782 | -79.97889 | 1156 ft | 22 kts | 328° |
| 2026-04-24 12:44 | 37.32897 | -79.97980 | 1152 ft | 9 kts | 326° |
| 2026-04-24 12:44 | 37.32910 | -79.98061 | 1151 ft | 11 kts | 240° |
| 2026-04-24 12:44 | 37.32861 | -79.98086 | 1152 ft | 8 kts | 143° |
| 2026-04-24 12:45 | 37.32851 | -79.98077 | 1152 ft | 0 kts | 147° |
| 2026-04-24 12:45 | 37.32845 | -79.98073 | 1152 ft | 13 kts | 147° |
| 2026-04-24 12:45 | 37.32529 | -79.97826 | 1160 ft | 90 kts | 148° |
| 2026-04-24 12:45 | 37.31803 | -79.97258 | 1146 ft | 149 kts | 148° |
| 2026-04-24 12:46 | 37.30868 | -79.96490 | 1471 ft | 166 kts | 146° |
| 2026-04-24 12:46 | 37.29811 | -79.95639 | 1649 ft | 206 kts | 148° |
| 2026-04-24 12:46 | 37.28468 | -79.94597 | 1995 ft | 239 kts | 148° |
| 2026-04-24 12:46 | 37.26994 | -79.93451 | 2518 ft | 256 kts | 148° |
| 2026-04-24 12:47 | 37.25465 | -79.92263 | 3166 ft | 266 kts | 147° |
| 2026-04-24 12:47 | 37.24181 | -79.90617 | 3900 ft | 269 kts | 116° |
| 2026-04-24 12:47 | 37.23751 | -79.88380 | 4660 ft | 267 kts | 89° |
| 2026-04-24 12:47 | 37.23747 | -79.86064 | 5380 ft | 271 kts | 87° |
| 2026-04-24 12:48 | 37.23775 | -79.83679 | 6060 ft | 276 kts | 86° |
| 2026-04-24 12:48 | 37.23815 | -79.81242 | 6786 ft | 279 kts | 86° |
| 2026-04-24 12:48 | 37.23857 | -79.78828 | 7474 ft | 283 kts | 87° |
| 2026-04-24 12:48 | 37.23898 | -79.76356 | 8177 ft | 286 kts | 87° |
| 2026-04-24 12:49 | 37.23940 | -79.73852 | 8842 ft | 290 kts | 88° |
| 2026-04-24 12:49 | 37.23982 | -79.71322 | 9495 ft | 293 kts | 88° |
| 2026-04-24 12:49 | 37.24024 | -79.68758 | 10155 ft | 296 kts | 88° |
| 2026-04-24 12:49 | 37.24043 | -79.66152 | 10698 ft | 304 kts | 93° |
| 2026-04-24 12:50 | 37.23455 | -79.63583 | 11083 ft | 315 kts | 116° |
| 2026-04-24 12:50 | 37.22212 | -79.61285 | 11514 ft | 322 kts | 138° |
| 2026-04-24 12:50 | 37.20401 | -79.59588 | 11967 ft | 329 kts | 146° |
| 2026-04-24 12:50 | 37.18501 | -79.57934 | 12407 ft | 336 kts | 147° |
| 2026-04-24 12:51 | 37.16552 | -79.56256 | 13016 ft | 338 kts | 147° |
| 2026-04-24 12:51 | 37.14610 | -79.54588 | 13581 ft | 340 kts | 147° |
| 2026-04-24 12:51 | 37.12650 | -79.52907 | 14103 ft | 343 kts | 147° |
| 2026-04-24 12:51 | 37.10673 | -79.51212 | 14628 ft | 346 kts | 147° |
| 2026-04-24 12:52 | 37.08683 | -79.49507 | 15130 ft | 349 kts | 147° |
| 2026-04-24 12:52 | 37.06668 | -79.47781 | 15636 ft | 352 kts | 147° |
| 2026-04-24 12:52 | 37.04631 | -79.46094 | 16122 ft | 353 kts | 153° |
| 2026-04-24 12:52 | 37.02307 | -79.45190 | 16555 ft | 351 kts | 176° |
| 2026-04-24 12:53 | 36.99897 | -79.45493 | 16992 ft | 349 kts | 199° |
| 2026-04-24 12:53 | 36.97779 | -79.46904 | 17415 ft | 348 kts | 217° |
| 2026-04-24 12:53 | 36.95789 | -79.48644 | 17868 ft | 350 kts | 216° |
| 2026-04-24 12:53 | 36.93778 | -79.50359 | 18395 ft | 350 kts | 216° |
| 2026-04-24 12:54 | 36.91789 | -79.52042 | 18945 ft | 349 kts | 216° |
| 2026-04-24 12:54 | 36.89779 | -79.53741 | 19493 ft | 348 kts | 216° |
| 2026-04-24 12:54 | 36.87759 | -79.55444 | 20035 ft | 347 kts | 216° |
| 2026-04-24 12:54 | 36.85766 | -79.57124 | 20558 ft | 346 kts | 216° |
| 2026-04-24 12:55 | 36.83775 | -79.58800 | 21064 ft | 345 kts | 217° |
| 2026-04-24 12:55 | 36.81816 | -79.60448 | 21572 ft | 344 kts | 217° |
| 2026-04-24 12:55 | 36.79814 | -79.62131 | 22073 ft | 344 kts | 217° |
| 2026-04-24 12:55 | 36.77840 | -79.63787 | 22557 ft | 343 kts | 217° |
| 2026-04-24 12:56 | 36.75865 | -79.65443 | 23048 ft | 343 kts | 217° |
| 2026-04-24 12:56 | 36.73894 | -79.67094 | 23532 ft | 342 kts | 217° |
| 2026-04-24 12:56 | 36.71914 | -79.68753 | 23944 ft | 344 kts | 217° |
| 2026-04-24 12:56 | 36.69891 | -79.70447 | 23988 ft | 357 kts | 217° |
| 2026-04-24 12:57 | 36.67793 | -79.72201 | 23992 ft | 368 kts | 217° |
| 2026-04-24 12:57 | 36.65659 | -79.73985 | 23993 ft | 378 kts | 217° |
| 2026-04-24 12:57 | 36.63446 | -79.75832 | 23998 ft | 387 kts | 217° |
| 2026-04-24 12:57 | 36.61163 | -79.77737 | 24000 ft | 395 kts | 217° |
| 2026-04-24 12:58 | 36.58841 | -79.79673 | 24002 ft | 403 kts | 217° |
| 2026-04-24 12:58 | 36.56491 | -79.81631 | 23997 ft | 410 kts | 217° |
| 2026-04-24 12:58 | 36.54127 | -79.83599 | 23997 ft | 417 kts | 216° |
| 2026-04-24 12:58 | 36.51687 | -79.85629 | 23992 ft | 417 kts | 216° |
| 2026-04-24 12:59 | 36.49276 | -79.87633 | 23993 ft | 417 kts | 216° |
| 2026-04-24 12:59 | 36.46856 | -79.89642 | 23994 ft | 417 kts | 217° |
| 2026-04-24 12:59 | 36.44436 | -79.91651 | 23994 ft | 417 kts | 216° |
| 2026-04-24 12:59 | 36.42022 | -79.93653 | 23995 ft | 416 kts | 216° |
| 2026-04-24 13:00 | 36.39634 | -79.95633 | 23992 ft | 416 kts | 216° |
| 2026-04-24 13:00 | 36.37228 | -79.97626 | 23995 ft | 416 kts | 216° |
| 2026-04-24 13:00 | 36.34822 | -79.99616 | 23990 ft | 416 kts | 216° |
| 2026-04-24 13:00 | 36.32389 | -80.01627 | 23992 ft | 416 kts | 216° |
| 2026-04-24 13:01 | 36.29971 | -80.03622 | 23997 ft | 416 kts | 216° |
| 2026-04-24 13:01 | 36.27565 | -80.05607 | 23995 ft | 416 kts | 216° |
| 2026-04-24 13:01 | 36.25156 | -80.07592 | 23994 ft | 416 kts | 216° |
| 2026-04-24 13:01 | 36.22749 | -80.09576 | 23991 ft | 416 kts | 216° |
| 2026-04-24 13:02 | 36.20327 | -80.11570 | 23666 ft | 422 kts | 216° |
| 2026-04-24 13:02 | 36.17896 | -80.13568 | 23153 ft | 415 kts | 216° |
| 2026-04-24 13:02 | 36.15525 | -80.15517 | 22658 ft | 406 kts | 216° |
| 2026-04-24 13:02 | 36.13193 | -80.17432 | 22017 ft | 403 kts | 216° |
| 2026-04-24 13:03 | 36.10877 | -80.19334 | 21292 ft | 401 kts | 216° |
| 2026-04-24 13:03 | 36.08567 | -80.21228 | 20556 ft | 397 kts | 216° |
| 2026-04-24 13:03 | 36.06294 | -80.23090 | 19964 ft | 386 kts | 215° |
| 2026-04-24 13:03 | 36.04090 | -80.24895 | 19477 ft | 374 kts | 216° |
| 2026-04-24 13:04 | 36.01938 | -80.26656 | 18971 ft | 365 kts | 215° |
| 2026-04-24 13:04 | 35.99838 | -80.28374 | 18375 ft | 359 kts | 215° |
| 2026-04-24 13:04 | 35.97762 | -80.30071 | 17729 ft | 355 kts | 215° |
| 2026-04-24 13:04 | 35.95727 | -80.31735 | 17154 ft | 350 kts | 215° |
| 2026-04-24 13:05 | 35.93702 | -80.33388 | 16558 ft | 346 kts | 215° |
| 2026-04-24 13:05 | 35.91710 | -80.35014 | 15973 ft | 341 kts | 216° |
| 2026-04-24 13:05 | 35.89737 | -80.36623 | 15386 ft | 337 kts | 216° |
| 2026-04-24 13:05 | 35.87803 | -80.38200 | 14803 ft | 332 kts | 215° |
| 2026-04-24 13:06 | 35.85889 | -80.39757 | 14297 ft | 327 kts | 215° |
| 2026-04-24 13:06 | 35.84002 | -80.41291 | 13734 ft | 324 kts | 216° |
| 2026-04-24 13:06 | 35.82229 | -80.42865 | 13089 ft | 304 kts | 220° |
| 2026-04-24 13:06 | 35.80636 | -80.44416 | 12592 ft | 290 kts | 220° |
| 2026-04-24 13:07 | 35.79058 | -80.45943 | 12157 ft | 287 kts | 220° |
| 2026-04-24 13:07 | 35.77494 | -80.47452 | 11712 ft | 284 kts | 220° |
| 2026-04-24 13:07 | 35.75940 | -80.48952 | 11268 ft | 282 kts | 220° |
| 2026-04-24 13:07 | 35.74301 | -80.50239 | 10855 ft | 279 kts | 203° |
| 2026-04-24 13:08 | 35.72461 | -80.50965 | 10498 ft | 275 kts | 199° |
| 2026-04-24 13:08 | 35.70661 | -80.51662 | 10246 ft | 266 kts | 199° |
| 2026-04-24 13:08 | 35.68905 | -80.52340 | 10000 ft | 259 kts | 199° |
| 2026-04-24 13:09 | 35.65427 | -80.53680 | 9613 ft | 265 kts | 199° |
| 2026-04-24 13:09 | 35.63655 | -80.54363 | 9402 ft | 268 kts | 199° |
| 2026-04-24 13:09 | 35.61867 | -80.55051 | 9148 ft | 270 kts | 199° |
| 2026-04-24 13:09 | 35.60066 | -80.55744 | 8799 ft | 273 kts | 199° |
| 2026-04-24 13:10 | 35.58348 | -80.56683 | 8434 ft | 274 kts | 219° |
| 2026-04-24 13:10 | 35.57172 | -80.58503 | 8119 ft | 272 kts | 247° |
| 2026-04-24 13:10 | 35.56856 | -80.60752 | 7868 ft | 269 kts | 272° |
| 2026-04-24 13:10 | 35.56890 | -80.63042 | 7621 ft | 268 kts | 270° |
| 2026-04-24 13:11 | 35.56873 | -80.65322 | 7374 ft | 268 kts | 269° |
| 2026-04-24 13:11 | 35.56849 | -80.67617 | 7109 ft | 268 kts | 269° |
| 2026-04-24 13:11 | 35.56836 | -80.69887 | 6844 ft | 267 kts | 270° |
| 2026-04-24 13:11 | 35.56826 | -80.72171 | 6624 ft | 267 kts | 270° |
| 2026-04-24 13:12 | 35.56814 | -80.74457 | 6343 ft | 267 kts | 270° |
| 2026-04-24 13:12 | 35.56801 | -80.76741 | 6079 ft | 267 kts | 270° |
| 2026-04-24 13:12 | 35.56789 | -80.78989 | 6004 ft | 260 kts | 270° |
| 2026-04-24 13:12 | 35.56778 | -80.81171 | 5998 ft | 258 kts | 270° |
| 2026-04-24 13:13 | 35.56754 | -80.83366 | 5971 ft | 256 kts | 265° |
| 2026-04-24 13:13 | 35.56193 | -80.85415 | 6008 ft | 254 kts | 243° |
| 2026-04-24 13:13 | 35.55340 | -80.87322 | 6021 ft | 255 kts | 242° |
| 2026-04-24 13:13 | 35.54483 | -80.89233 | 6003 ft | 256 kts | 242° |
| 2026-04-24 13:14 | 35.53578 | -80.91116 | 5994 ft | 256 kts | 234° |
| 2026-04-24 13:14 | 35.52468 | -80.92824 | 6001 ft | 256 kts | 232° |
| 2026-04-24 13:14 | 35.51346 | -80.94531 | 5996 ft | 256 kts | 232° |
| 2026-04-24 13:14 | 35.50093 | -80.96064 | 5994 ft | 256 kts | 212° |
| 2026-04-24 13:15 | 35.48397 | -80.96691 | 5790 ft | 265 kts | 182° |
| 2026-04-24 13:15 | 35.46594 | -80.96236 | 5483 ft | 262 kts | 163° |
| 2026-04-24 13:15 | 35.44824 | -80.95744 | 5143 ft | 259 kts | 172° |
| 2026-04-24 13:15 | 35.43035 | -80.95455 | 4794 ft | 256 kts | 175° |
| 2026-04-24 13:16 | 35.41262 | -80.95252 | 4452 ft | 254 kts | 177° |
| 2026-04-24 13:16 | 35.39530 | -80.95084 | 4129 ft | 245 kts | 178° |
| 2026-04-24 13:16 | 35.37859 | -80.94935 | 3781 ft | 237 kts | 178° |
| 2026-04-24 13:16 | 35.36231 | -80.94794 | 3450 ft | 230 kts | 178° |
| 2026-04-24 13:17 | 35.34671 | -80.94659 | 3137 ft | 224 kts | 179° |
| 2026-04-24 13:17 | 35.33133 | -80.94527 | 2834 ft | 216 kts | 179° |
| 2026-04-24 13:17 | 35.31737 | -80.94405 | 2561 ft | 185 kts | 179° |
| 2026-04-24 13:17 | 35.30549 | -80.94304 | 2314 ft | 162 kts | 179° |
| 2026-04-24 13:18 | 35.29437 | -80.94210 | 2112 ft | 157 kts | 179° |
| 2026-04-24 13:18 | 35.28357 | -80.94118 | 1904 ft | 154 kts | 179° |
| 2026-04-24 13:18 | 35.27301 | -80.94027 | 1698 ft | 147 kts | 179° |
| 2026-04-24 13:18 | 35.26300 | -80.93936 | 1488 ft | 146 kts | 178° |
| 2026-04-24 13:19 | 35.25280 | -80.93827 | 1319 ft | 144 kts | 178° |
| 2026-04-24 13:19 | 35.24285 | -80.93746 | 1126 ft | 143 kts | 179° |
| 2026-04-24 13:19 | 35.23298 | -80.93676 | 942 ft | 141 kts | 177° |
| 2026-04-24 13:19 | 35.22317 | -80.93600 | 758 ft | 136 kts | 177° |
| 2026-04-24 13:20 | 35.21472 | -80.93531 | 731 ft | 98 kts | 177° |
| 2026-04-24 13:20 | 35.20976 | -80.93518 | 721 ft | 33 kts | 199° |
| 2026-04-24 13:20 | 35.20948 | -80.93604 | 720 ft | 10 kts | 307° |
| 2026-04-24 13:20 | 35.21023 | -80.93625 | 722 ft | 11 kts | 355° |
| 2026-04-24 13:21 | 35.21105 | -80.93632 | 723 ft | 12 kts | 356° |
| 2026-04-24 13:21 | 35.21191 | -80.93639 | 725 ft | 12 kts | 356° |
| 2026-04-24 13:21 | 35.21282 | -80.93647 | 727 ft | 13 kts | 356° |
| 2026-04-24 13:21 | 35.21375 | -80.93655 | 729 ft | 13 kts | 356° |
| 2026-04-24 13:22 | 35.21473 | -80.93665 | 731 ft | 14 kts | 355° |
| 2026-04-24 13:22 | 35.21578 | -80.93675 | 731 ft | 16 kts | 355° |
| 2026-04-24 13:22 | 35.21697 | -80.93684 | 732 ft | 17 kts | 356° |
| 2026-04-24 13:22 | 35.21822 | -80.93695 | 734 ft | 18 kts | 356° |
| 2026-04-24 13:23 | 35.21954 | -80.93705 | 734 ft | 20 kts | 356° |
| 2026-04-24 13:23 | 35.22098 | -80.93718 | 735 ft | 21 kts | 355° |
| 2026-04-24 13:23 | 35.22194 | -80.93765 | 736 ft | 13 kts | 270° |
| 2026-04-24 13:23 | 35.22256 | -80.93812 | 735 ft | 13 kts | 0° |
| 2026-04-24 13:24 | 35.22358 | -80.93818 | 735 ft | 15 kts | 356° |
| 2026-04-24 13:24 | 35.22471 | -80.93843 | 734 ft | 17 kts | 324° |
| 2026-04-24 13:24 | 35.22554 | -80.93891 | 733 ft | 5 kts | 354° |
| 2026-04-24 13:24 | 35.22583 | -80.93919 | 733 ft | 5 kts | 271° |
| 2026-04-24 13:25 | 35.22570 | -80.93961 | 732 ft | 3 kts | 246° |
| 2026-04-24 13:25 | 35.22567 | -80.93971 | 732 ft | 0 kts | 246° |